Time;durP1;ratioP1;P1;durP2;ratioP2;P2;SDS_P1;SDS_P2;PMS_P1;PMS_P2;Temp;Humidity;BMP_temperature;BMP_pressure;BME280_temperature;BME280_humidity;BME280_pressure;Samples;Min_cycle;Max_cycle;Signal;HPM_P1;HPM_P2
2023/03/14 00:01:09;;;;;;;12.10;2.55;;;;;;;1.61;100.00;98388.16;5035212;28;20049;-85
2023/03/14 00:03:35;;;;;;;11.82;2.60;;;;;;;1.66;100.00;98406.88;5052662;28;20056;-85
2023/03/14 00:06:03;;;;;;;14.50;3.22;;;;;;;1.69;100.00;98427.41;5035568;28;20053;-86
2023/03/14 00:08:30;;;;;;;9.98;2.30;;;;;;;1.82;100.00;98440.69;5035686;28;20041;-86
2023/03/14 00:11:00;;;;;;;10.90;2.58;;;;;;;1.49;100.00;98399.81;5048961;28;20052;-86
2023/03/14 00:13:26;;;;;;;11.25;2.10;;;;;;;1.58;100.00;98427.81;5030392;28;20057;-86
2023/03/14 00:15:53;;;;;;;14.27;2.88;;;;;;;1.67;100.00;98440.38;5044437;28;20053;-85
2023/03/14 00:18:20;;;;;;;14.27;2.28;;;;;;;1.50;100.00;98435.84;5036593;28;20491;-87
2023/03/14 00:20:47;;;;;;;12.02;2.35;;;;;;;1.35;100.00;98418.38;5035285;28;20055;-86
2023/03/14 00:23:13;;;;;;;14.73;2.83;;;;;;;1.31;100.00;98424.53;5039621;28;20144;-85
2023/03/14 00:25:40;;;;;;;10.27;2.33;;;;;;;1.46;100.00;98441.19;5036384;28;20662;-86
2023/03/14 00:28:07;;;;;;;16.10;2.88;;;;;;;1.42;100.00;98462.84;5022045;28;20064;-86
2023/03/14 00:30:37;;;;;;;10.63;1.98;;;;;;;1.50;100.00;98471.94;5030287;28;20049;-85
2023/03/14 00:33:04;;;;;;;13.70;2.95;;;;;;;1.32;100.00;98452.84;5040216;28;20049;-85
2023/03/14 00:35:31;;;;;;;7.00;1.80;;;;;;;1.56;100.00;98458.00;5035566;28;20048;-85
2023/03/14 00:37:57;;;;;;;12.75;3.03;;;;;;;1.47;100.00;98477.25;5035627;28;20167;-85
2023/03/14 00:40:24;;;;;;;13.38;2.78;;;;;;;1.48;100.00;98462.59;5035838;28;20049;-85
2023/03/14 00:42:51;;;;;;;8.93;3.20;;;;;;;1.26;100.00;98453.06;5016537;28;20056;-86
2023/03/14 00:45:17;;;;;;;11.57;2.80;;;;;;;0.96;100.00;98408.63;5031397;28;20053;-86
2023/03/14 00:47:45;;;;;;;12.65;2.35;;;;;;;1.21;100.00;98446.41;5054618;28;20116;-86
2023/03/14 00:50:12;;;;;;;8.45;1.92;;;;;;;1.26;100.00;98475.44;5053809;28;20487;-86
2023/03/14 00:52:39;;;;;;;11.00;2.10;;;;;;;1.27;100.00;98459.88;5048186;28;20049;-86
2023/03/14 00:55:06;;;;;;;10.70;1.80;;;;;;;1.40;100.00;98493.84;5027138;28;20053;-86
2023/03/14 00:57:32;;;;;;;14.13;2.42;;;;;;;1.18;100.00;98475.69;5016530;28;20057;-86
2023/03/14 00:59:59;;;;;;;11.85;2.72;;;;;;;1.34;100.00;98499.19;5035042;28;20049;-85
2023/03/14 01:02:26;;;;;;;10.07;2.10;;;;;;;1.37;100.00;98506.00;5031577;28;20367;-85
2023/03/14 01:04:52;;;;;;;8.00;2.15;;;;;;;1.18;100.00;98480.84;5035015;28;20146;-85
2023/03/14 01:07:19;;;;;;;7.38;1.60;;;;;;;1.32;100.00;98516.47;5035513;28;20049;-86
2023/03/14 01:09:46;;;;;;;15.90;2.22;;;;;;;1.04;100.00;98476.16;5035629;28;20045;-85
2023/03/14 01:12:12;;;;;;;5.82;1.80;;;;;;;1.29;100.00;98514.84;5026141;28;20041;-85
2023/03/14 01:14:39;;;;;;;11.00;2.13;;;;;;;0.87;100.00;98481.94;5034101;28;20053;-86
2023/03/14 01:17:06;;;;;;;10.05;1.95;;;;;;;1.22;100.00;98525.41;5022391;28;20526;-85
2023/03/14 01:19:33;;;;;;;4.68;1.50;;;;;;;1.33;100.00;98551.66;5035499;28;20056;-85
2023/03/14 01:22:00;;;;;;;8.68;1.90;;;;;;;1.25;100.00;98541.59;5028050;28;20124;-86
2023/03/14 01:24:28;;;;;;;8.85;2.20;;;;;;;1.11;100.00;98533.50;5027453;28;20098;-86
2023/03/14 01:26:54;;;;;;;13.23;2.40;;;;;;;1.04;100.00;98532.03;5021491;28;20053;-86
2023/03/14 01:29:21;;;;;;;6.35;1.65;;;;;;;0.98;100.00;98530.53;5024738;28;20057;-86
2023/03/14 01:31:48;;;;;;;10.50;2.05;;;;;;;1.03;100.00;98543.25;5022826;28;20045;-86
2023/03/14 01:34:15;;;;;;;6.65;1.75;;;;;;;0.78;100.00;98505.44;5052437;28;20487;-86
2023/03/14 01:36:41;;;;;;;7.40;1.90;;;;;;;1.04;100.00;98553.50;5033658;28;20053;-86
2023/03/14 01:39:09;;;;;;;7.50;1.60;;;;;;;0.88;100.00;98539.44;5040112;28;20491;-86
2023/03/14 01:41:36;;;;;;;6.53;1.73;;;;;;;0.80;100.00;98544.00;5034582;28;20063;-85
2023/03/14 01:44:03;;;;;;;7.88;1.77;;;;;;;0.93;100.00;98553.84;5042983;28;20407;-87
2023/03/14 01:46:45;;;;;;;5.68;1.70;;;;;;;1.08;100.00;98588.59;5032977;28;20102;-86
2023/03/14 01:49:21;;;;;;;11.40;1.80;;;;;;;1.09;100.00;98594.59;5020891;28;20188;-86
2023/03/14 01:52:05;;;;;;;9.30;1.90;;;;;;;0.90;100.00;98582.31;5033635;28;20415;-87
2023/03/14 01:54:37;;;;;;;12.85;2.58;;;;;;;0.79;100.00;98571.50;5035177;28;20471;-86
2023/03/14 01:57:10;;;;;;;8.68;1.63;;;;;;;0.95;100.00;98610.50;5035366;28;20401;-86
2023/03/14 01:59:40;;;;;;;15.40;2.50;;;;;;;0.75;100.00;98601.66;5052669;28;20056;-87
2023/03/14 02:02:09;;;;;;;10.68;3.28;;;;;;;0.74;100.00;98594.00;5030414;28;20395;-87
2023/03/14 02:04:38;;;;;;;8.95;2.28;;;;;;;0.74;100.00;98606.88;5034616;28;20535;-86
2023/03/14 02:07:22;;;;;;;9.65;1.77;;;;;;;0.76;100.00;98605.06;5025559;28;20046;-86
2023/03/14 02:09:49;;;;;;;8.32;1.60;;;;;;;0.73;100.00;98595.72;5035473;28;20106;-86
2023/03/14 02:12:18;;;;;;;12.45;2.33;;;;;;;0.81;100.00;98602.38;5033687;28;20045;-86
2023/03/14 02:14:47;;;;;;;5.80;1.80;;;;;;;0.73;100.00;98600.06;5033883;28;20056;-86
2023/03/14 02:17:17;;;;;;;6.55;1.80;;;;;;;0.92;100.00;98619.19;5040492;28;20516;-87
2023/03/14 02:19:43;;;;;;;8.27;2.05;;;;;;;0.86;100.00;98626.25;5052012;28;20049;-85
2023/03/14 02:22:12;;;;;;;5.00;2.33;;;;;;;0.90;100.00;98630.41;5044560;28;20071;-87
2023/03/14 02:24:58;;;;;;;8.55;1.80;;;;;;;0.87;100.00;98627.94;5032773;28;20431;-86
2023/03/14 02:27:26;;;;;;;10.00;2.10;;;;;;;0.60;100.00;98594.41;5033263;28;20087;-86
2023/03/14 02:30:00;;;;;;;6.00;1.65;;;;;;;0.88;100.00;98638.19;5034780;28;20071;-87
2023/03/14 02:32:30;;;;;;;6.70;1.60;;;;;;;0.82;100.00;98637.56;5051690;28;20371;-86
2023/03/14 02:35:00;;;;;;;8.38;2.05;;;;;;;0.68;100.00;98633.66;5034019;28;20055;-86
2023/03/14 02:37:42;;;;;;;7.30;2.10;;;;;;;0.45;100.00;98607.78;5031098;28;20049;-85
2023/03/14 02:40:10;;;;;;;7.82;2.20;;;;;;;0.71;100.00;98638.72;5044325;28;20068;-86
2023/03/14 02:42:36;;;;;;;6.45;1.92;;;;;;;0.66;100.00;98637.19;5033916;28;20041;-86
2023/03/14 02:45:09;;;;;;;6.65;1.90;;;;;;;0.80;100.00;98636.75;5033667;28;20056;-86
2023/03/14 02:47:46;;;;;;;9.77;2.15;;;;;;;0.63;100.00;98632.97;5016575;28;20063;-86
2023/03/14 02:50:18;;;;;;;7.53;1.80;;;;;;;0.64;100.00;98644.97;5034391;28;20045;-86
2023/03/14 02:52:45;;;;;;;10.85;2.08;;;;;;;0.50;100.00;98616.22;5033124;28;20056;-86
2023/03/14 02:55:12;;;;;;;8.95;2.45;;;;;;;0.63;100.00;98647.59;5017699;28;20102;-86
2023/03/14 02:57:39;;;;;;;14.23;2.15;;;;;;;0.53;100.00;98634.13;5051619;28;20053;-87
2023/03/14 03:00:08;;;;;;;17.40;2.53;;;;;;;0.48;100.00;98633.41;5026540;28;20053;-85
2023/03/14 03:02:34;;;;;;;7.25;2.55;;;;;;;0.55;100.00;98651.22;5047704;28;20546;-85
2023/03/14 03:05:01;;;;;;;11.02;2.30;;;;;;;0.57;100.00;98657.19;5033518;28;20047;-88
2023/03/14 03:07:28;;;;;;;9.63;2.10;;;;;;;0.43;100.00;98640.47;5051023;28;20045;-86
2023/03/14 03:09:54;;;;;;;12.57;2.13;;;;;;;0.40;100.00;98658.56;5045508;28;20380;-86
2023/03/14 03:12:21;;;;;;;8.65;2.00;;;;;;;0.46;100.00;98648.06;5032874;28;20054;-85
2023/03/14 03:14:48;;;;;;;10.85;2.08;;;;;;;0.48;100.00;98654.88;5033937;28;20072;-86
2023/03/14 03:17:14;;;;;;;8.20;2.15;;;;;;;0.31;100.00;98642.50;5033212;28;20094;-85
2023/03/14 03:19:41;;;;;;;9.43;1.90;;;;;;;0.30;100.00;98647.69;5033423;28;20396;-85
2023/03/14 03:22:08;;;;;;;10.88;2.22;;;;;;;0.15;100.00;98649.81;5025892;28;20048;-86
2023/03/14 03:24:35;;;;;;;9.73;2.33;;;;;;;0.15;100.00;98647.25;5033021;28;20414;-86
2023/03/14 03:27:01;;;;;;;7.60;1.90;;;;;;;0.03;100.00;98631.31;5050106;28;20053;-85
2023/03/14 03:29:28;;;;;;;7.32;1.83;;;;;;;0.12;100.00;98624.16;5051019;28;20056;-86
2023/03/14 03:31:55;;;;;;;7.55;1.95;;;;;;;0.28;100.00;98658.03;5033149;28;20502;-85
2023/03/14 03:34:22;;;;;;;11.60;2.50;;;;;;;0.23;100.00;98633.31;5026705;28;20406;-86
2023/03/14 03:36:48;;;;;;;9.13;2.05;;;;;;;0.38;100.00;98671.50;5033703;28;20446;-85
2023/03/14 03:39:15;;;;;;;7.10;2.10;;;;;;;0.36;100.00;98673.28;5035100;28;20049;-86
2023/03/14 03:41:42;;;;;;;11.43;2.25;;;;;;;0.15;100.00;98657.53;5051185;28;20044;-86
2023/03/14 03:44:08;;;;;;;18.95;3.35;;;;;;;0.07;100.00;98653.50;5030593;28;20079;-85
2023/03/14 03:46:35;;;;;;;7.95;2.33;;;;;;;0.28;100.00;98703.53;5054368;28;20471;-85
2023/03/14 03:49:02;;;;;;;14.10;2.92;;;;;;;0.28;100.00;98700.94;5037748;28;20512;-85
2023/03/14 03:51:28;;;;;;;6.85;2.00;;;;;;;0.16;100.00;98681.53;5035223;28;20121;-85
2023/03/14 03:53:57;;;;;;;7.50;2.00;;;;;;;0.23;100.00;98671.91;5036989;28;20494;-86
2023/03/14 03:56:23;;;;;;;8.20;1.88;;;;;;;0.17;100.00;98685.81;5022715;28;20068;-86
2023/03/14 03:58:50;;;;;;;8.07;2.22;;;;;;;0.45;100.00;98731.38;5052895;28;20044;-86
2023/03/14 04:01:17;;;;;;;8.02;1.88;;;;;;;0.07;100.00;98681.81;5030207;28;20048;-85
2023/03/14 04:03:44;;;;;;;8.02;2.13;;;;;;;0.29;100.00;98738.69;5050468;28;20048;-86
2023/03/14 04:06:12;;;;;;;8.65;2.13;;;;;;;0.31;100.00;98745.47;5023728;28;20054;-86
2023/03/14 04:08:43;;;;;;;5.75;2.08;;;;;;;0.13;100.00;98712.53;5030490;28;20095;-86
2023/03/14 04:11:10;;;;;;;8.40;2.72;;;;;;;0.26;100.00;98757.63;5030575;28;20041;-86
2023/03/14 04:13:37;;;;;;;8.27;1.90;;;;;;;0.16;100.00;98727.84;5029476;28;20048;-86
2023/03/14 04:16:19;;;;;;;7.10;1.77;;;;;;;0.07;100.00;98728.13;5037111;28;20051;-86
2023/03/14 04:18:46;;;;;;;9.70;1.75;;;;;;;0.00;100.00;98730.03;5037106;28;20045;-85
2023/03/14 04:21:14;;;;;;;13.02;2.10;;;;;;;-0.02;100.00;98732.66;5030230;28;20406;-87
2023/03/14 04:23:40;;;;;;;8.27;2.83;;;;;;;-0.19;100.00;98716.81;5034554;28;20050;-86
2023/03/14 04:26:07;;;;;;;6.05;1.83;;;;;;;0.22;100.00;98776.63;5047833;28;20053;-86
2023/03/14 04:28:36;;;;;;;8.23;1.88;;;;;;;-0.14;100.00;98737.25;5017052;28;20438;-87
2023/03/14 04:31:10;;;;;;;8.85;1.73;;;;;;;-0.13;100.00;98726.09;5031363;28;20045;-86
2023/03/14 04:33:37;;;;;;;7.50;2.08;;;;;;;0.05;100.00;98766.75;5036102;28;20098;-86
2023/03/14 04:36:06;;;;;;;8.02;1.92;;;;;;;0.16;100.00;98780.19;5035293;28;20057;-86
2023/03/14 04:38:33;;;;;;;8.48;2.85;;;;;;;-0.32;100.00;98729.16;5046929;28;20086;-86
2023/03/14 04:41:00;;;;;;;8.25;1.75;;;;;;;-0.12;100.00;98743.22;5015655;28;20048;-85
2023/03/14 04:43:27;;;;;;;6.00;1.70;;;;;;;0.12;100.00;98790.59;5034619;28;20045;-85
2023/03/14 04:45:55;;;;;;;4.88;1.75;;;;;;;0.07;100.00;98782.16;5042039;28;20127;-85
2023/03/14 04:48:23;;;;;;;8.82;3.53;;;;;;;0.12;100.00;98785.47;5019632;28;20049;-86
2023/03/14 04:50:50;;;;;;;8.30;2.03;;;;;;;-0.12;100.00;98769.78;5048685;28;20058;-86
2023/03/14 04:53:17;;;;;;;5.95;1.90;;;;;;;-0.11;100.00;98778.34;5025262;28;20049;-86
2023/03/14 04:55:55;;;;;;;9.05;2.75;;;;;;;-0.49;100.00;98732.13;5037927;28;20053;-85
2023/03/14 04:58:23;;;;;;;8.10;1.95;;;;;;;-0.02;100.00;98788.38;5035954;28;20438;-86
2023/03/14 05:00:50;;;;;;;8.75;2.13;;;;;;;-0.30;100.00;98773.66;5051838;28;20159;-86
2023/03/14 05:03:18;;;;;;;5.47;1.92;;;;;;;-0.24;100.00;98798.38;5043277;28;20050;-86
2023/03/14 05:05:45;;;;;;;6.43;2.17;;;;;;;-0.28;100.00;98797.63;5030971;28;20044;-86
2023/03/14 05:08:12;;;;;;;13.73;2.13;;;;;;;-0.30;100.00;98775.38;5035835;28;20053;-86
2023/03/14 05:10:39;;;;;;;5.13;1.85;;;;;;;-0.06;100.00;98815.09;5047175;28;20048;-86
2023/03/14 05:13:06;;;;;;;6.35;1.77;;;;;;;-0.41;100.00;98757.63;5024656;28;20072;-86
2023/03/14 05:15:33;;;;;;;9.75;2.40;;;;;;;-0.63;100.00;98740.16;5034955;28;20048;-86
2023/03/14 05:17:59;;;;;;;8.85;2.28;;;;;;;-0.26;100.00;98810.44;5035366;28;20431;-86
2023/03/14 05:20:26;;;;;;;9.23;1.80;;;;;;;-0.53;100.00;98745.09;5033828;28;20075;-85
2023/03/14 05:22:53;;;;;;;9.05;1.92;;;;;;;-0.30;100.00;98789.09;5034665;28;20476;-86
2023/03/14 05:25:20;;;;;;;5.40;1.80;;;;;;;-0.28;100.00;98787.31;5052135;28;20110;-84
2023/03/14 05:27:46;;;;;;;4.47;1.52;;;;;;;-0.17;100.00;98812.78;5051740;28;20076;-85
2023/03/14 05:30:13;;;;;;;13.05;2.03;;;;;;;-0.16;100.00;98819.63;5035644;28;20056;-85
2023/03/14 05:32:40;;;;;;;10.63;2.00;;;;;;;-0.53;100.00;98765.66;5023410;28;20045;-86
2023/03/14 05:35:07;;;;;;;4.60;1.88;;;;;;;-0.23;100.00;98831.78;5032057;28;20080;-86
2023/03/14 05:37:34;;;;;;;4.90;1.70;;;;;;;-0.34;100.00;98791.78;5048652;28;20045;-87
2023/03/14 05:40:01;;;;;;;9.07;3.95;;;;;;;-0.06;100.00;98846.78;5052557;28;20482;-87
2023/03/14 05:42:28;;;;;;;5.60;1.60;;;;;;;-0.39;100.00;98797.00;5034288;28;20053;-88
2023/03/14 05:44:55;;;;;;;7.88;2.00;;;;;;;-0.56;100.00;98776.88;5034442;28;20317;-87
2023/03/14 05:47:21;;;;;;;13.13;1.95;;;;;;;-0.34;100.00;98825.19;5048203;28;20056;-86
2023/03/14 05:49:48;;;;;;;11.07;2.35;;;;;;;-0.47;100.00;98807.50;5050978;28;20548;-86
2023/03/14 05:52:15;;;;;;;3.60;1.60;;;;;;;-0.63;100.00;98781.28;5051776;28;20106;-86
2023/03/14 05:54:42;;;;;;;8.48;2.03;;;;;;;-0.44;100.00;98833.13;5034858;28;20457;-86
2023/03/14 05:57:09;;;;;;;5.55;1.40;;;;;;;-0.41;100.00;98842.50;5035298;28;20437;-88
2023/03/14 05:59:36;;;;;;;4.53;1.50;;;;;;;-0.77;100.00;98804.75;5034782;28;20411;-88
2023/03/14 06:02:05;;;;;;;5.47;1.80;;;;;;;-0.49;100.00;98854.69;5030095;28;20538;-88
2023/03/14 06:04:32;;;;;;;7.25;1.73;;;;;;;-0.53;100.00;98835.06;5045703;28;20049;-88
2023/03/14 06:06:58;;;;;;;6.68;1.80;;;;;;;-0.72;100.00;98824.38;5032551;28;20096;-87
2023/03/14 06:09:25;;;;;;;6.50;2.17;;;;;;;-0.64;100.00;98851.59;5034736;28;20074;-85
2023/03/14 06:11:52;;;;;;;7.22;1.50;;;;;;;-0.63;100.00;98837.84;5022673;28;20049;-86
2023/03/14 06:14:19;;;;;;;8.05;1.80;;;;;;;-0.78;100.00;98822.75;5033865;28;20414;-85
2023/03/14 06:16:47;;;;;;;11.35;2.03;;;;;;;-0.71;100.00;98841.47;5051238;28;20057;-86
2023/03/14 06:19:15;;;;;;;8.77;2.22;;;;;;;-0.85;100.00;98822.06;5052083;28;20049;-87
2023/03/14 06:21:41;;;;;;;7.50;2.10;;;;;;;-0.56;100.00;98868.56;5045748;28;20398;-87
2023/03/14 06:24:08;;;;;;;12.07;3.08;;;;;;;-0.55;100.00;98850.50;5051249;28;20067;-86
2023/03/14 06:26:35;;;;;;;6.65;2.13;;;;;;;-0.53;100.00;98869.34;5034487;28;20061;-85
2023/03/14 06:29:03;;;;;;;6.90;1.90;;;;;;;-0.59;100.00;98854.88;5034142;28;20049;-85
2023/03/14 06:31:31;;;;;;;7.22;2.28;;;;;;;-0.29;100.00;98885.09;5051349;28;20059;-87
2023/03/14 06:33:58;;;;;;;6.22;2.08;;;;;;;-0.37;100.00;98916.13;5034443;28;20478;-87
2023/03/14 06:36:25;;;;;;;11.40;1.98;;;;;;;-0.62;100.00;98883.25;5051559;28;20634;-87
2023/03/14 06:38:51;;;;;;;4.80;1.60;;;;;;;-0.32;100.00;98919.44;5051161;28;20057;-87
2023/03/14 06:41:19;;;;;;;7.70;2.28;;;;;;;-0.77;100.00;98868.16;5032494;28;20059;-83
2023/03/14 06:43:45;;;;;;;4.25;1.50;;;;;;;-0.45;100.00;98900.84;5051656;28;20049;-83
2023/03/14 06:46:12;;;;;;;5.35;1.75;;;;;;;-0.80;100.00;98852.78;5032863;28;20142;-83
2023/03/14 06:48:39;;;;;;;6.70;1.92;;;;;;;-0.66;100.00;98852.50;5051236;28;20076;-87
2023/03/14 06:51:06;;;;;;;5.28;1.55;;;;;;;-0.73;100.00;98849.19;5029080;28;20050;-88
2023/03/14 06:53:33;;;;;;;12.70;2.10;;;;;;;-0.50;100.00;98884.69;5050854;28;20679;-90
2023/03/14 06:56:00;;;;;;;7.57;2.00;;;;;;;-0.49;100.00;98878.69;5027640;28;20052;-90
2023/03/14 06:58:27;;;;;;;9.00;1.60;;;;;;;-0.28;100.00;98887.63;5033774;28;20049;-90
2023/03/14 07:00:54;;;;;;;7.75;1.80;;;;;;;-0.27;100.00;98884.16;5050489;28;20071;-90
2023/03/14 07:03:21;;;;;;;5.38;1.90;;;;;;;-0.36;100.00;98874.09;5051242;28;20099;-89
2023/03/14 07:05:48;;;;;;;5.53;1.67;;;;;;;-0.08;100.00;98927.47;5033220;28;20056;-90
2023/03/14 07:08:15;;;;;;;8.90;2.10;;;;;;;-0.15;100.00;98920.78;5033177;28;20075;-89
2023/03/14 07:10:42;;;;;;;5.05;1.80;;;;;;;-0.05;100.00;98933.41;5028858;28;20057;-90
2023/03/14 07:13:09;;;;;;;5.00;1.60;;;;;;;-0.34;100.00;98858.63;5027222;28;20075;-89
2023/03/14 07:15:36;;;;;;;5.82;2.75;;;;;;;-0.02;100.00;98914.47;5023138;28;20060;-90
2023/03/14 07:18:03;;;;;;;6.47;1.63;;;;;;;-0.18;100.00;98875.38;5034911;28;20558;-91
2023/03/14 07:20:32;;;;;;;9.27;1.70;;;;;;;0.21;100.00;98934.50;5036385;28;20052;-91
2023/03/14 07:23:02;;;;;;;8.75;2.25;;;;;;;0.16;100.00;98938.91;5033294;28;20095;-90
2023/03/14 07:25:29;;;;;;;6.32;1.75;;;;;;;0.16;100.00;98933.75;5030157;28;20056;-90
2023/03/14 07:27:56;;;;;;;5.88;1.77;;;;;;;0.23;100.00;98935.34;5031698;28;20056;-89
2023/03/14 07:30:23;;;;;;;5.93;1.58;;;;;;;0.45;100.00;98924.50;5036497;28;20110;-88
2023/03/14 07:32:50;;;;;;;7.32;2.10;;;;;;;1.19;100.00;98913.06;5026201;28;20494;-89
2023/03/14 07:35:19;;;;;;;8.98;2.05;;;;;;;1.62;100.00;98922.09;5033694;28;20056;-89
2023/03/14 07:37:46;;;;;;;10.90;2.17;;;;;;;2.04;100.00;98913.94;5049491;28;20521;-92
2023/03/14 07:40:14;;;;;;;7.45;1.80;;;;;;;2.04;100.00;98955.22;5043943;28;20072;-90
2023/03/14 07:42:43;;;;;;;11.02;2.58;;;;;;;2.65;100.00;98961.88;5028690;28;20053;-89
2023/03/14 07:45:10;;;;;;;4.88;1.60;;;;;;;3.42;100.00;98992.84;5037309;28;20049;-90
2023/03/14 07:47:38;;;;;;;4.93;1.58;;;;;;;3.21;100.00;98973.75;5032225;28;20128;-84
2023/03/14 07:50:05;;;;;;;5.07;1.48;;;;;;;3.70;100.00;98982.31;5036894;28;20055;-89
2023/03/14 07:52:32;;;;;;;6.13;1.60;;;;;;;3.82;100.00;99000.88;5055065;28;20053;-92
2023/03/14 07:54:59;;;;;;;7.38;1.80;;;;;;;4.23;100.00;99008.78;5037715;28;20479;-92
2023/03/14 07:57:26;;;;;;;9.48;1.75;;;;;;;4.01;100.00;98998.44;5034504;28;20500;-93
2023/03/14 07:59:52;;;;;;;6.00;1.48;;;;;;;3.70;100.00;98953.84;5035049;28;20050;-92
2023/03/14 08:02:22;;;;;;;7.75;1.90;;;;;;;4.19;100.00;99002.88;5031893;28;20045;-92
2023/03/14 08:04:49;;;;;;;8.15;2.17;;;;;;;3.83;100.00;99002.56;5047899;28;20053;-92
2023/03/14 08:07:16;;;;;;;6.82;1.40;;;;;;;4.24;100.00;99006.13;5021119;28;20053;-92
2023/03/14 08:09:43;;;;;;;5.95;1.48;;;;;;;4.59;100.00;99001.31;5031183;28;20060;-92
2023/03/14 08:12:10;;;;;;;3.95;1.30;;;;;;;4.66;100.00;98991.53;5036479;28;20048;-91
2023/03/14 08:14:37;;;;;;;9.98;1.77;;;;;;;4.94;100.00;98999.00;5027444;28;20049;-91
2023/03/14 08:17:05;;;;;;;4.75;1.55;;;;;;;4.47;100.00;99005.22;5034187;28;20477;-88
2023/03/14 08:19:31;;;;;;;4.78;1.40;;;;;;;3.80;100.00;98993.16;5036690;28;20475;-87
2023/03/14 08:21:58;;;;;;;7.40;1.55;;;;;;;4.38;100.00;99019.38;5023736;28;20056;-87
2023/03/14 08:24:26;;;;;;;5.55;1.60;;;;;;;3.67;100.00;99018.66;5021481;28;20049;-88
2023/03/14 08:26:52;;;;;;;7.30;1.50;;;;;;;3.57;100.00;99038.00;5043979;28;20127;-88
2023/03/14 08:29:19;;;;;;;13.80;1.80;;;;;;;3.68;100.00;99035.88;5035936;28;20407;-88
2023/03/14 08:31:48;;;;;;;6.53;2.20;;;;;;;3.59;100.00;98987.03;5034962;28;20611;-89
2023/03/14 08:34:15;;;;;;;4.70;1.35;;;;;;;3.99;100.00;99021.78;5051353;28;20135;-89
2023/03/14 08:36:42;;;;;;;6.18;1.20;;;;;;;3.46;100.00;99009.94;5035342;28;20059;-89
2023/03/14 08:39:09;;;;;;;4.85;1.45;;;;;;;3.79;100.00;99020.78;5034527;28;20069;-89
2023/03/14 08:41:44;;;;;;;5.03;1.52;;;;;;;3.56;100.00;99011.28;5027026;28;20045;-89
2023/03/14 08:44:14;;;;;;;5.60;1.42;;;;;;;3.49;100.00;99017.59;5036108;28;20091;-88
2023/03/14 08:46:44;;;;;;;6.10;1.50;;;;;;;3.71;100.00;99047.88;5027010;28;20584;-89
2023/03/14 08:49:11;;;;;;;6.45;1.50;;;;;;;3.52;100.00;99035.56;5031729;28;20407;-88
2023/03/14 08:51:38;;;;;;;3.45;1.40;;;;;;;3.33;100.00;99029.38;5051757;28;20678;-88
2023/03/14 08:54:05;;;;;;;2.75;1.20;;;;;;;3.99;100.00;99047.69;5052503;28;20392;-89
2023/03/14 08:56:32;;;;;;;5.13;1.27;;;;;;;4.01;100.00;99045.88;5035745;28;20487;-89
2023/03/14 08:58:58;;;;;;;6.88;2.33;;;;;;;4.31;100.00;99043.84;5053917;28;20449;-87
2023/03/14 09:01:26;;;;;;;6.45;1.40;;;;;;;4.47;100.00;99070.00;5051088;28;20053;-87
2023/03/14 09:03:53;;;;;;;4.50;1.20;;;;;;;3.96;100.00;99019.31;5028352;28;20072;-87
2023/03/14 09:06:19;;;;;;;5.85;1.30;;;;;;;4.40;100.00;99072.91;5021206;28;20102;-87
2023/03/14 09:08:46;;;;;;;5.35;1.30;;;;;;;3.71;100.00;99007.28;5047888;28;20544;-87
2023/03/14 09:11:13;;;;;;;4.65;1.42;;;;;;;4.05;100.00;99054.38;5024568;28;20057;-87
2023/03/14 09:13:40;;;;;;;6.63;1.35;;;;;;;3.68;100.00;99046.22;5052712;28;20048;-87
2023/03/14 09:16:08;;;;;;;4.30;1.30;;;;;;;3.84;100.00;99041.31;5036556;28;20054;-86
2023/03/14 09:18:35;;;;;;;2.95;1.23;;;;;;;4.10;100.00;99037.75;5052590;28;20140;-87
2023/03/14 09:21:02;;;;;;;3.42;1.20;;;;;;;3.86;100.00;99074.94;5015844;28;20384;-87
2023/03/14 09:23:28;;;;;;;5.18;1.38;;;;;;;3.42;100.00;99053.19;5043872;28;20049;-87
2023/03/14 09:25:59;;;;;;;3.15;1.25;;;;;;;3.36;100.00;99061.16;5021207;28;20107;-86
2023/03/14 09:28:26;;;;;;;4.20;1.48;;;;;;;3.23;100.00;99041.78;5024496;28;20685;-87
2023/03/14 09:30:54;;;;;;;5.60;1.30;;;;;;;3.35;100.00;99106.03;5022613;28;20045;-88
2023/03/14 09:33:21;;;;;;;5.45;1.25;;;;;;;3.14;100.00;99079.16;5031744;28;20050;-87
2023/03/14 09:35:47;;;;;;;5.18;1.30;;;;;;;3.20;100.00;99080.69;5030226;28;20049;-87
2023/03/14 09:38:16;;;;;;;3.20;1.10;;;;;;;3.35;100.00;99100.88;5029931;28;20147;-87
2023/03/14 09:40:43;;;;;;;4.00;1.30;;;;;;;2.91;100.00;99108.34;5021158;28;20072;-87
2023/03/14 09:43:13;;;;;;;4.18;1.20;;;;;;;2.68;100.00;99165.94;5046464;28;20049;-88
2023/03/14 09:45:42;;;;;;;7.20;1.40;;;;;;;2.01;100.00;99096.47;5027103;28;20061;-88
2023/03/14 09:48:19;;;;;;;5.85;1.30;;;;;;;2.52;100.00;99170.72;5052879;28;20053;-88
2023/03/14 09:50:49;;;;;;;7.53;1.50;;;;;;;2.20;100.00;99135.53;5032331;28;20505;-89
2023/03/14 09:53:18;;;;;;;6.22;1.58;;;;;;;2.07;100.00;99137.59;5029813;28;20049;-89
2023/03/14 09:55:48;;;;;;;6.57;1.70;;;;;;;2.03;100.00;99157.47;5032827;28;20479;-90
2023/03/14 09:58:20;;;;;;;2.75;1.33;;;;;;;2.11;100.00;99192.56;5028820;28;20045;-89
2023/03/14 10:00:50;;;;;;;3.47;1.38;;;;;;;2.05;100.00;99194.44;5022153;28;20495;-88
2023/03/14 10:03:31;;;;;;;3.78;1.40;;;;;;;2.25;100.00;99198.22;5046182;28;20041;-89
2023/03/14 10:05:58;;;;;;;3.05;1.27;;;;;;;1.65;100.00;99202.41;5026240;28;20052;-90
2023/03/14 10:08:25;;;;;;;5.07;1.38;;;;;;;2.09;100.00;99241.69;5034684;28;20049;-89
2023/03/14 10:10:53;;;;;;;3.92;1.40;;;;;;;1.66;100.00;99224.72;5042842;28;20048;-90
2023/03/14 10:13:23;;;;;;;3.60;1.50;;;;;;;1.69;100.00;99268.50;5034411;28;20053;-90
2023/03/14 10:15:58;;;;;;;3.58;1.45;;;;;;;1.60;100.00;99222.31;5034802;28;20049;-90
2023/03/14 10:18:25;;;;;;;3.40;1.30;;;;;;;1.31;100.00;99190.31;5034861;28;20120;-90
2023/03/14 10:21:25;;;;;;;3.83;1.10;;;;;;;2.10;100.00;99258.84;5033657;28;20504;-90
2023/03/14 10:23:52;;;;;;;2.75;1.20;;;;;;;1.47;100.00;99214.88;5033334;28;20526;-90
2023/03/14 10:26:29;;;;;;;2.10;1.08;;;;;;;2.00;100.00;99262.56;5021272;28;20556;-90
2023/03/14 10:29:08;;;;;;;3.47;1.30;;;;;;;2.23;100.00;99293.81;5019636;28;20049;-90
2023/03/14 10:31:54;;;;;;;4.90;1.33;;;;;;;2.37;100.00;99296.00;5014969;28;20052;-90
2023/03/14 10:34:26;;;;;;;4.32;1.67;;;;;;;2.34;100.00;99290.06;5031186;28;20051;-90
2023/03/14 10:37:25;;;;;;;4.15;1.08;;;;;;;2.62;100.00;99293.59;5034581;28;20054;-90
2023/03/14 10:39:55;;;;;;;3.70;1.40;;;;;;;2.89;100.00;99292.88;5027517;28;20045;-90
2023/03/14 10:42:34;;;;;;;5.10;1.77;;;;;;;2.71;100.00;99310.59;5017947;28;20049;-89
2023/03/14 10:45:05;;;;;;;3.58;1.10;;;;;;;2.87;100.00;99289.44;5051766;28;20099;-90
2023/03/14 10:47:32;;;;;;;4.10;1.33;;;;;;;2.92;100.00;99322.06;5040799;28;20058;-88
2023/03/14 10:50:24;;;;;;;7.63;1.55;;;;;;;3.14;100.00;99355.88;5034162;28;20144;-88
2023/03/14 10:52:52;;;;;;;3.78;1.55;;;;;;;3.36;100.00;99356.09;5049706;28;20045;-88
2023/03/14 10:55:40;;;;;;;6.85;1.70;;;;;;;3.02;100.00;99387.28;5019099;28;20071;-89
2023/03/14 10:58:29;;;;;;;7.95;1.83;;;;;;;3.45;100.00;99378.25;5033514;28;20142;-89
2023/03/14 11:01:20;;;;;;;4.43;1.30;;;;;;;4.01;100.00;99381.72;5034694;28;20065;-87
2023/03/14 11:04:22;;;;;;;9.23;1.73;;;;;;;3.47;100.00;99367.84;5037819;28;20049;-88
2023/03/14 11:07:10;;;;;;;9.90;1.80;;;;;;;3.87;100.00;99398.53;5054729;28;20156;-87
2023/03/14 11:10:02;;;;;;;11.20;3.08;;;;;;;3.53;100.00;99393.56;5033385;28;20049;-88
2023/03/14 11:12:41;;;;;;;10.65;2.25;;;;;;;3.54;100.00;99352.13;5042982;28;20502;-88
2023/03/14 11:15:34;;;;;;;7.93;1.60;;;;;;;3.93;100.00;99407.84;5038866;28;20053;-87
2023/03/14 11:18:18;;;;;;;8.93;1.88;;;;;;;3.75;100.00;99422.22;5032797;28;20544;-87
2023/03/14 11:20:55;;;;;;;9.98;2.15;;;;;;;3.61;100.00;99395.03;5031530;28;20053;-87
2023/03/14 11:23:27;;;;;;;10.65;2.38;;;;;;;3.88;100.00;99412.31;5036980;28;20057;-88
2023/03/14 11:26:25;;;;;;;7.28;1.83;;;;;;;3.95;100.00;99421.63;5023583;28;20056;-87
2023/03/14 11:28:57;;;;;;;12.90;2.78;;;;;;;3.99;100.00;99413.69;5037623;28;20056;-88
2023/03/14 11:31:28;;;;;;;10.65;2.30;;;;;;;3.96;100.00;99390.47;5033539;28;20044;-87
2023/03/14 11:34:06;;;;;;;13.55;2.10;;;;;;;4.19;100.00;99425.16;5036883;28;20076;-88
2023/03/14 11:36:39;;;;;;;9.25;2.10;;;;;;;4.26;100.00;99431.00;5036856;28;20446;-87
2023/03/14 11:39:16;;;;;;;7.05;2.05;;;;;;;4.25;100.00;99424.09;5031844;28;20132;-87